To NAV CANADA Home Page Login to a new session Search on AWWS site Feedback and Comments Disclaimer Vers la page française équivalente Tips FAQ What's new on the site To the Forecasts and Observations / NOTAM section To "File a Flight Plan" website Publications and other links Update of the User's profile FIC Telephone Numbers My Weather Data Folder Route Weather Data Regional Weather Data Local Weather Data To the Forecasts and Observations / NOTAM section
Request Generated 04/30/2017 at 05:02:24 UTC . Weather information available at that time is displayed.

METAR/TAF

LOURDES-DE-BLANC-SABLON/QC    

METAR CYBX 300500Z 25002KT 3/8SM -FZRA FZFG VV001 M00/M00 A2944 RMK
FG8 SLP973=
METAR CYBX 300400Z 25002KT 3/8SM -FZRA FZFG VV001 M00/M00 A2943 RMK
FG8 SLP970=
SPECI CYBX 300336Z 00000KT 3/8SM -FZRA FZFG VV002 M00/M00 A2942 RMK
FG8 SLP968=
SPECI CYBX 300311Z VRB02KT 1/8SM -FZRA FZFG VV001 M00/M00 A2942 RMK
FG8 SLP967=
METAR CYBX 300300Z 25002KT 1/8SM FZFG VV001 M00/M00 A2942 RMK FG8
SLP966=

TAF AMD CYBX 300335Z 3003/3014 29008KT 1/2SM -FZDZ FG VV001 TEMPO
3003/3005 4SM BR SCT001 BKN010
FM300500 31012G22KT P6SM -RASN OVC010 TEMPO 3005/3007 3SM -SN BR
FM300700 33015G25KT P6SM OVC025 TEMPO 3007/3010 4SM -SHSN BKN015
OVC025
FM301000 32018G28KT P6SM BKN025
RMK NXT FCST BY 300800Z=
Your time UTC time
Weather data provided by Environment Canada and NAV CANADA